Terminal Aerodrome Forecast
Issued by NWS Wilmington, OH

Current Version | Previous Version | Graphics & Text | Print | Product List | Glossary On
Versions: 1 2 3 4 5 6 7 8 9 10 11 12 13 14 15 16 17 18 19 20 21
000
FTUS41 KILN 012300
TAFCVG
TAF
KCVG 012339Z 0200/0306 36009KT P6SM SCT090
     FM020200 VRB03KT P6SM SKC
     FM021500 26006KT P6SM FEW050 SCT250
     FM022300 21003KT P6SM SKC=

USA.gov is the U.S. government's official web portal to all federal, state and local government web resources and services.